Latest Weather Observations for West Roebuck

IDW60801

Issued at 10:13 pm WST Wednesday 8 July 2020 (issued every 10 minutes, with the page automatically refreshed every 10 minutes)

About weather observations | Map of weather stations | Latest weather observations for WA | Other Formats
Station Details ID: 003096 Name: WEST ROEBUCK Lat: -17.90 Lon: 122.31 Height: 32.0 m
Data from the previous 72 hours. | See also: Recent months at West Roebuck
Date/Time
WST
Temp
°C
App
Temp
°C
Dew
Point
°C
Rel
Hum
%
Delta-T
°C
Wind Press
QNH
hPa
Press
MSL
hPa
Rain since
9am
mm
Dir  Spd
km/h
Gust
km/h
Spd
kts
Gust
kts
08/10:00pm 18.7 - - - - W 7 9 4 5 - - 0.0
08/09:30pm 18.2 - - - - WNW 9 11 5 6 - - 0.0
08/09:00pm 19.7 - - - - W 9 11 5 6 - - 0.0
08/08:30pm 19.5 - - - - W 9 11 5 6 - - 0.0
08/08:00pm 19.8 - - - - NW 9 11 5 6 - - 0.0
08/07:30pm 20.8 - - - - WSW 9 11 5 6 - - 0.0
08/07:00pm 21.6 - - - - W 11 17 6 9 - - 0.0
08/06:30pm 20.8 - - - - NNW 9 11 5 6 - - 0.0
08/06:00pm 22.4 - - - - NNW 7 9 4 5 - - 0.0
08/05:30pm 24.4 - - - - NW 6 9 3 5 - - 0.0
08/05:00pm 26.0 - - - - SE 4 7 2 4 - - 0.0
08/04:30pm 28.1 - - - - ESE 6 7 3 4 - - 0.0
08/04:00pm 28.8 - - - - E 7 13 4 7 - - 0.0
08/03:30pm 29.7 - - - - ESE 7 13 4 7 - - 0.0
08/03:00pm 29.9 - - - - ENE 9 13 5 7 - - 0.0
08/02:30pm 29.6 - - - - E 9 17 5 9 - - 0.0
08/02:00pm 29.4 - - - - ENE 9 17 5 9 - - 0.0
08/01:30pm 29.4 - - - - NNE 9 13 5 7 - - 0.0
08/01:00pm 29.9 - - - - NE 11 19 6 10 - - 0.0
08/12:30pm 29.6 - - - - ENE 13 22 7 12 - - 0.0
08/12:00pm 27.8 - - - - ENE 15 24 8 13 - - 0.0
08/11:30am 26.5 - - - - ENE 15 28 8 15 - - 0.0
08/11:00am 26.8 - - - - ENE 15 26 8 14 - - 0.0
08/10:30am 24.5 - - - - E 13 24 7 13 - - 0.0
08/10:00am 22.0 - - - - E 11 15 6 8 - - 0.0
08/09:30am 21.2 - - - - E 13 20 7 11 - - 0.0
08/09:00am 20.1 - - - - E 13 20 7 11 - - 0.0
08/08:30am 18.2 - - - - ENE 11 17 6 9 - - 0.0
08/08:00am 17.3 - - - - ENE 11 17 6 9 - - 0.0
08/07:30am 16.5 - - - - E 9 13 5 7 - - 0.0
08/07:00am 13.8 - - - - ENE 9 13 5 7 - - 0.0
08/06:30am 10.8 - - - - E 9 11 5 6 - - 0.0
08/06:00am 10.4 - - - - E 9 13 5 7 - - 0.0
08/05:30am 10.9 - - - - ESE 9 13 5 7 - - 0.0
08/05:00am 10.3 - - - - ESE 9 13 5 7 - - 0.0
08/04:30am 10.7 - - - - ESE 7 9 4 5 - - 0.0
08/04:00am 11.1 - - - - SE 9 11 5 6 - - 0.0
08/03:30am 11.4 - - - - ESE 9 11 5 6 - - 0.0
08/03:00am 11.4 - - - - ESE 9 11 5 6 - - 0.0
08/02:30am 11.6 - - - - ESE 9 11 5 6 - - 0.0
08/02:00am 11.9 - - - - ESE 9 11 5 6 - - 0.0
08/01:30am 12.0 - - - - E 9 9 5 5 - - 0.0
08/01:00am 12.5 - - - - E 9 9 5 5 - - 0.0
08/12:30am 12.1 - - - - E 9 11 5 6 - - 0.0
08/12:00am 11.9 - - - - ESE 7 9 4 5 - - 0.0
 
Date/Time
WST
Temp
°C
App
Temp
°C
Dew
Point
°C
Rel
Hum
%
Delta-T
°C
Wind Press
QNH
hPa
Press
MSL
hPa
Rain since
9am
mm
Dir  Spd
km/h
Gust
km/h
Spd
kts
Gust
kts
07/11:30pm 13.0 - - - - SE 7 7 4 4 - - 0.0
07/11:00pm 12.6 - - - - SSE 7 9 4 5 - - 0.0
07/10:30pm 12.4 - - - - S 4 6 2 3 - - 0.0
07/10:00pm 13.0 - - - - SSW 6 7 3 4 - - 0.0
07/09:30pm 13.5 - - - - SW 6 7 3 4 - - 0.0
07/09:00pm 13.9 - - - - SW 6 9 3 5 - - 0.0
07/08:30pm 15.2 - - - - S 6 7 3 4 - - 0.0
07/08:00pm 15.9 - - - - E 6 7 3 4 - - 0.0
07/07:30pm 16.9 - - - - ENE 7 7 4 4 - - 0.0
07/07:00pm 17.3 - - - - NNE 6 9 3 5 - - 0.0
07/06:30pm 19.7 - - - - SSE 7 11 4 6 - - 0.0
07/06:00pm 21.1 - - - - SSE 9 9 5 5 - - 0.0
07/05:30pm 23.5 - - - - SSE 7 9 4 5 - - 0.0
07/05:00pm 26.8 - - - - SSE 7 11 4 6 - - 0.0
07/04:30pm 29.5 - - - - ESE 7 11 4 6 - - 0.0
07/04:00pm 30.3 - - - - ENE 9 13 5 7 - - 0.0
07/03:30pm 30.8 - - - - E 9 17 5 9 - - 0.0
07/03:00pm 30.5 - - - - ESE 9 17 5 9 - - 0.0
07/02:30pm 30.8 - - - - ENE 9 15 5 8 - - 0.0
07/02:00pm 30.5 - - - - E 11 22 6 12 - - 0.0
07/01:30pm 29.8 - - - - ESE 11 19 6 10 - - 0.0
07/01:00pm 29.6 - - - - E 11 19 6 10 - - 0.0
07/12:30pm 29.3 - - - - E 17 26 9 14 - - 0.0
07/12:00pm 29.1 - - - - ENE 17 26 9 14 - - 0.0
07/11:30am 28.8 - - - - ENE 15 24 8 13 - - 0.0
07/11:00am 28.2 - - - - ENE 15 24 8 13 - - 0.0
07/10:30am 26.6 - - - - ENE 17 28 9 15 - - 0.0
07/10:00am 25.2 - - - - E 17 26 9 14 - - 0.0
07/09:30am 24.1 - - - - ENE 17 30 9 16 - - 0.0
07/09:00am 22.0 - - - - E 19 30 10 16 - - 0.0
07/08:30am 20.3 - - - - E 15 24 8 13 - - 0.0
07/08:00am 18.1 - - - - E 13 22 7 12 - - 0.0
07/07:30am 14.8 - - - - E 11 19 6 10 - - 0.0
07/07:29am 14.7 - - - - E 11 19 6 10 - - 0.0
07/07:00am 9.7 - - - - ENE 9 13 5 7 - - 0.0
07/06:30am 8.7 - - - - E 9 13 5 7 - - 0.0
07/06:00am 8.5 - - - - E 9 13 5 7 - - 0.0
07/05:30am 8.9 - - - - ESE 9 13 5 7 - - 0.0
07/05:00am 8.5 - - - - SE 9 9 5 5 - - 0.0
07/04:30am 8.6 - - - - ESE 9 9 5 5 - - 0.0
07/04:00am 9.4 - - - - ESE 9 11 5 6 - - 0.0
07/03:30am 9.7 - - - - ESE 9 11 5 6 - - 0.0
07/03:00am 10.3 - - - - ESE 9 9 5 5 - - 0.0
07/02:30am 11.1 - - - - ESE 9 11 5 6 - - 0.0
07/02:00am 11.6 - - - - ESE 9 13 5 7 - - 0.0
07/01:30am 11.5 - - - - ESE 9 13 5 7 - - 0.0
07/01:00am 11.8 - - - - E 9 11 5 6 - - 0.0
07/12:30am 12.6 - - - - E 9 13 5 7 - - 0.0
07/12:00am 13.0 - - - - ESE 9 13 5 7 - - 0.0
 
Date/Time
WST
Temp
°C
App
Temp
°C
Dew
Point
°C
Rel
Hum
%
Delta-T
°C
Wind Press
QNH
hPa
Press
MSL
hPa
Rain since
9am
mm
Dir  Spd
km/h
Gust
km/h
Spd
kts
Gust
kts
06/11:30pm 13.0 - - - - E 9 11 5 6 - - 0.0
06/11:00pm 13.6 - - - - E 9 11 5 6 - - 0.0
06/10:30pm 14.4 - - - - E 9 11 5 6 - - 0.0
06/10:00pm 15.0 - - - - E 9 11 5 6 - - 0.0
06/09:30pm 15.4 - - - - E 9 9 5 5 - - 0.0
06/09:00pm 15.3 - - - - E 9 13 5 7 - - 0.0
06/08:30pm 15.8 - - - - ESE 9 11 5 6 - - 0.0
06/08:00pm 16.5 - - - - E 7 9 4 5 - - 0.0
06/07:30pm 17.9 - - - - ESE 9 11 5 6 - - 0.0
06/07:00pm 17.8 - - - - ESE 9 9 5 5 - - 0.0
06/06:30pm 19.2 - - - - ESE 7 9 4 5 - - 0.0
06/06:00pm 20.6 - - - - ESE 9 11 5 6 - - 0.0
06/05:30pm 23.4 - - - - ESE 7 9 4 5 - - 0.0
06/05:00pm 26.9 - - - - ESE 6 7 3 4 - - 0.0
06/04:30pm 29.0 - - - - E 7 11 4 6 - - 0.0
06/04:00pm 29.8 - - - - E 9 17 5 9 - - 0.0
06/03:30pm 30.3 - - - - E 9 13 5 7 - - 0.0
06/03:00pm 30.1 - - - - E 9 17 5 9 - - 0.0
06/02:30pm 29.7 - - - - ENE 11 19 6 10 - - 0.0
06/02:00pm 30.8 - - - - NE 9 13 5 7 - - 0.0
06/01:30pm 30.4 - - - - E 11 17 6 9 - - 0.0
06/01:00pm 30.3 - - - - ENE 15 24 8 13 - - 0.0
06/12:30pm 29.9 - - - - ENE 15 24 8 13 - - 0.0
06/12:00pm 29.2 - - - - ENE 15 20 8 11 - - 0.0
06/11:30am 28.9 - - - - ENE 17 30 9 16 - - 0.0
06/11:00am 28.1 - - - - ENE 15 24 8 13 - - 0.0
06/10:30am 26.7 - - - - ENE 17 24 9 13 - - 0.0
06/10:00am 26.2 - - - - ENE 17 33 9 18 - - 0.0
06/09:30am 24.2 - - - - E 13 22 7 12 - - 0.0
06/09:00am 22.4 - - - - ENE 13 24 7 13 - - 0.0
06/08:30am 20.5 - - - - ENE 17 30 9 16 - - 0.0
06/08:00am 18.9 - - - - ENE 17 28 9 15 - - 0.0
06/07:30am 16.3 - - - - ENE 13 20 7 11 - - 0.0
06/07:00am 14.4 - - - - ENE 11 17 6 9 - - 0.0
06/06:30am 13.7 - - - - ENE 13 17 7 9 - - 0.0
06/06:00am 13.0 - - - - ENE 11 17 6 9 - - 0.0
06/05:30am 13.0 - - - - ENE 11 15 6 8 - - 0.0
06/05:00am 13.4 - - - - ENE 11 17 6 9 - - 0.0
06/04:30am 12.6 - - - - ENE 11 15 6 8 - - 0.0
06/04:00am 12.1 - - - - ENE 9 15 5 8 - - 0.0
06/03:30am 11.5 - - - - ENE 9 13 5 7 - - 0.0
06/03:00am 10.7 - - - - ENE 9 13 5 7 - - 0.0
06/02:30am 10.8 - - - - E 9 11 5 6 - - 0.0
06/02:00am 11.3 - - - - E 9 11 5 6 - - 0.0
06/01:30am 11.5 - - - - ESE 9 9 5 5 - - 0.0
06/01:00am 11.9 - - - - ESE 7 9 4 5 - - 0.0
06/12:30am 11.9 - - - - E 7 9 4 5 - - 0.0
06/12:00am 12.6 - - - - E 9 11 5 6 - - 0.0
 
Date/Time
WST
Temp
°C
App
Temp
°C
Dew
Point
°C
Rel
Hum
%
Delta-T
°C
Wind Press
QNH
hPa
Press
MSL
hPa
Rain since
9am
mm
Dir  Spd
km/h
Gust
km/h
Spd
kts
Gust
kts
05/11:30pm 13.6 - - - - ESE 9 11 5 6 - - 0.0
05/11:00pm 13.8 - - - - ESE 9 13 5 7 - - 0.0
05/10:30pm 15.3 - - - - ESE 9 13 5 7 - - 0.0

Other formats

Comma delimited format used in spreadsheet applications
http://www.bom.gov.au/fwo/IDW60801/IDW60801.95204.axf

JavaScript Object Notation format (JSON) in row-major order
http://www.bom.gov.au/fwo/IDW60801/IDW60801.95204.json

Data quality

Most of these data are generated automatically and are frequently updated. Quality checks on data are not normally performed. It is possible for incorrect values to appear. Refer to information at About Latest Weather Observations and please check the disclaimer before using these data.